Oss, Netherlands
Current Conditions -  °F | °C
As of 2:34 AM on Saturday 25 Oct 2014 (Local Time) from EHVK Reporting Station
Haze Haze  
Wind Chill: 52°   Ceiling: 600
Heat Index: 52°   Visibility: 4mi
Dew Point: 52°   Wind: 10mph
Humidity: 100%   Direction: 200°SSW
Pressure: 30"   Gusts: NA
Location:  51.77°N, 5.52°E
Report Text: EHVK 250034Z AUTO 20009KT 6000 BR OVC006 11/11 Q1016 YLO
Loading
Personal Weather Stations






























Interactive Weather Map
Tropical Storm Tracking
New forecast layout! Learn more

10-Day Weather Forecast

Advertisements
Track Severe Weather on mobile